Terminal Aerodrome Forecast
Issued by NWS

Home | Current Version | Previous Version | Text Only | Print | Product List | Glossary Off
Versions: 1 2 3 4 5 6 7 8 9 10 11 12 13 14 15 16 17 18 19 20 21 22 23 24 25 26

000
FTUS43 KLOT 271505 AAA
TAFGYY
TAF AMD
KGYY 271505Z 2715/2812 03006KT P6SM BKN009
     FM271700 01004KT P6SM SCT008
     FM271900 04006KT P6SM FEW035 BKN250
     FM280400 09006KT P6SM BKN120=

USA.gov is the U.S. government's official web portal to all federal, state and local government web resources and services.